createdAt,value
2019-06-26T00:01:50.822Z,72.49
2019-06-26T00:04:33.782Z,72.56
2019-06-26T00:07:06.993Z,72.44
2019-06-26T00:09:40.392Z,71.93
2019-06-26T00:12:15.271Z,71.45
2019-06-26T00:14:59.908Z,71.31
2019-06-26T00:17:33.222Z,71.35
2019-06-26T00:20:06.528Z,71.50
2019-06-26T00:22:40.272Z,71.75
2019-06-26T00:25:14.204Z,72.48
2019-06-26T00:27:47.440Z,72.75
2019-06-26T00:30:20.824Z,73.44
2019-06-26T00:33:03.652Z,73.77
2019-06-26T00:35:37.333Z,73.82
2019-06-26T00:38:10.956Z,73.83
2019-06-26T00:40:44.167Z,73.75
2019-06-26T00:43:41.480Z,73.51
2019-06-26T00:46:03.550Z,73.40
2019-06-26T00:48:36.888Z,73.23
2019-06-26T00:51:10.498Z,73.08
2019-06-26T00:53:43.843Z,73.41
2019-06-26T00:56:17.272Z,73.42
2019-06-26T00:58:52.621Z,73.64
2019-06-26T01:01:25.975Z,73.84
2019-06-26T01:04:13.772Z,73.49
2019-06-26T01:06:47.161Z,73.58
2019-06-26T01:09:20.421Z,73.33
2019-06-26T01:11:55.304Z,73.25
2019-06-26T01:14:38.222Z,73.62
2019-06-26T01:17:11.560Z,73.53
2019-06-26T01:19:44.802Z,73.77
2019-06-26T01:22:18.110Z,74.17
2019-06-26T01:24:52.889Z,74.79
2019-06-26T01:27:28.763Z,75.01
2019-06-26T01:30:02.078Z,74.86
2019-06-26T01:32:47.568Z,74.70
2019-06-26T01:35:20.877Z,74.86
2019-06-26T01:37:53.947Z,74.63
2019-06-26T01:40:40.308Z,74.91
2019-06-26T01:43:13.874Z,74.77
2019-06-26T01:45:50.472Z,74.58
2019-06-26T01:48:23.390Z,74.90
2019-06-26T01:50:57.447Z,75.42
2019-06-26T01:53:30.670Z,75.72
2019-06-26T01:56:03.627Z,75.81
2019-06-26T01:58:55.358Z,76.00
2019-06-26T02:01:49.088Z,76.26
2019-06-26T02:04:36.885Z,76.19
2019-06-26T02:07:28.191Z,76.35
2019-06-26T02:10:01.823Z,76.19
2019-06-26T02:12:36.196Z,75.95
2019-06-26T02:15:29.257Z,75.74
2019-06-26T02:18:02.825Z,76.11
2019-06-26T02:20:36.201Z,76.24
2019-06-26T02:23:10.814Z,76.24
2019-06-26T02:25:46.111Z,76.44
2019-06-26T02:28:20.943Z,76.81
2019-06-26T02:30:54.339Z,76.80
2019-06-26T02:33:39.436Z,76.65
2019-06-26T02:36:13.530Z,76.84
2019-06-26T02:38:59.348Z,76.78
2019-06-26T02:41:34.607Z,76.76
2019-06-26T02:44:09.494Z,76.62
2019-06-26T02:46:42.814Z,76.56
2019-06-26T02:49:35.303Z,76.41
2019-06-26T02:52:19.837Z,76.56
2019-06-26T02:55:05.261Z,76.94
2019-06-26T02:57:38.554Z,77.38
2019-06-26T04:08:16.522Z,78.35
2019-06-26T04:10:50.427Z,78.26
2019-06-26T04:13:34.229Z,78.20
2019-06-26T04:16:20.022Z,78.25
2019-06-26T04:18:53.783Z,78.03
2019-06-26T04:21:27.042Z,77.62
2019-06-26T04:24:00.771Z,77.77
2019-06-26T04:26:36.276Z,77.41
2019-06-26T04:29:09.643Z,76.64
2019-06-26T04:31:43.332Z,74.97
2019-06-26T04:34:17.434Z,73.97
2019-06-26T04:37:08.900Z,73.17
2019-06-26T04:39:42.581Z,72.63
2019-06-26T04:42:36.121Z,72.55
2019-06-26T04:45:10.809Z,72.06
2019-06-26T04:47:44.482Z,71.85
2019-06-26T04:50:36.226Z,71.56
2019-06-26T04:53:09.856Z,71.65
2019-06-26T04:55:43.326Z,71.47
2019-06-26T04:58:17.553Z,71.69
2019-06-26T05:01:07.033Z,71.63
2019-06-26T05:03:58.814Z,71.57
2019-06-26T05:06:50.194Z,71.68
2019-06-26T05:09:41.628Z,71.52
2019-06-26T05:12:25.089Z,71.23
2019-06-26T05:14:58.473Z,71.05
2019-06-26T05:17:35.152Z,71.17
2019-06-26T05:20:10.283Z,70.88
2019-06-26T05:22:46.893Z,70.87
2019-06-26T05:25:20.312Z,70.89
2019-06-26T05:27:53.988Z,71.03
2019-06-26T05:30:29.349Z,71.22
2019-06-26T05:33:14.102Z,71.07
2019-06-26T05:35:49.581Z,71.27
2019-06-26T05:38:23.271Z,71.01
2019-06-26T05:40:59.007Z,71.24
2019-06-26T05:43:34.291Z,70.88
2019-06-26T05:46:08.001Z,71.05
2019-06-26T05:48:41.343Z,70.40
2019-06-26T05:51:14.843Z,69.76
2019-06-26T05:53:54.300Z,69.93
2019-06-26T05:56:27.607Z,70.25
2019-06-26T05:59:10.630Z,70.16
2019-06-26T06:01:44.488Z,69.41
2019-06-26T06:04:17.852Z,69.04
2019-06-26T06:06:52.227Z,68.27
2019-06-26T06:09:43.613Z,67.52
2019-06-26T06:12:29.410Z,66.58
2019-06-26T06:15:19.387Z,66.44
2019-06-26T06:18:03.453Z,65.46
2019-06-26T06:20:41.546Z,65.16
2019-06-26T06:23:26.131Z,64.35
2019-06-26T06:25:59.833Z,63.66
2019-06-26T06:28:33.614Z,64.21
2019-06-26T06:31:07.180Z,62.99
2019-06-26T06:33:40.940Z,63.69
2019-06-26T06:36:14.650Z,63.37
2019-06-26T06:39:02.304Z,64.02
2019-06-26T06:41:37.414Z,63.99
2019-06-26T06:44:11.447Z,63.62
2019-06-26T06:47:03.891Z,63.83
2019-06-26T06:49:30.981Z,64.20
2019-06-26T06:52:04.274Z,62.66
2019-06-26T06:54:50.061Z,62.87
2019-06-26T06:57:23.899Z,62.23
2019-06-26T07:00:16.849Z,62.13
2019-06-26T07:03:07.318Z,62.01
2019-06-26T07:05:41.397Z,60.34
2019-06-26T07:08:14.723Z,60.54
2019-06-26T07:10:47.984Z,61.11
2019-06-26T07:13:21.877Z,60.42
2019-06-26T07:15:55.354Z,61.16
2019-06-26T07:18:29.107Z,60.56
2019-06-26T07:21:02.514Z,59.25
2019-06-26T07:23:36.543Z,59.70
2019-06-26T07:26:13.191Z,59.39
2019-06-26T07:28:45.489Z,59.12
2019-06-26T07:31:19.071Z,59.60
2019-06-26T07:33:55.402Z,60.68
2019-06-26T07:36:27.772Z,59.96
2019-06-26T07:39:20.582Z,59.66
2019-06-26T07:41:53.618Z,60.69
2019-06-26T07:44:27.559Z,59.69
2019-06-26T07:47:00.892Z,59.60
2019-06-26T07:49:34.609Z,58.86
2019-06-26T07:52:08.400Z,59.49
2019-06-26T07:54:41.625Z,59.28
2019-06-26T07:57:14.938Z,59.44
2019-06-26T07:59:47.426Z,59.44
2019-06-26T08:02:20.941Z,59.40
2019-06-26T08:04:54.381Z,59.03
2019-06-26T08:07:28.100Z,58.64
2019-06-26T08:10:01.822Z,58.12
2019-06-26T08:12:35.598Z,58.05
2019-06-26T08:15:08.478Z,57.29
2019-06-26T08:17:55.924Z,58.10
2019-06-26T08:20:32.824Z,57.94
2019-06-26T08:23:07.273Z,56.84
2019-06-26T08:25:47.684Z,57.35
2019-06-26T08:28:23.187Z,57.15
2019-06-26T08:30:56.587Z,56.09
2019-06-26T08:33:30.700Z,56.44
2019-06-26T08:36:04.034Z,57.05
2019-06-26T08:38:56.557Z,56.22
2019-06-26T08:41:29.779Z,56.90
2019-06-26T08:44:03.347Z,55.89
2019-06-26T08:46:37.170Z,55.06
2019-06-26T08:49:24.261Z,55.84
2019-06-26T08:51:55.105Z,55.29
2019-06-26T08:54:38.461Z,55.30
2019-06-26T08:57:13.145Z,55.82
2019-06-26T08:59:47.683Z,56.86
2019-06-26T09:02:31.255Z,56.31
2019-06-26T09:05:15.246Z,55.35
2019-06-26T09:07:58.266Z,55.19
2019-06-26T09:10:31.995Z,53.52
2019-06-26T09:13:05.286Z,54.07
2019-06-26T09:15:39.383Z,53.91
2019-06-26T09:18:12.571Z,55.00
2019-06-26T09:20:47.190Z,53.90
2019-06-26T09:23:20.609Z,53.29
2019-06-26T09:25:54.199Z,53.48
2019-06-26T09:28:44.088Z,52.34
2019-06-26T09:31:33.083Z,52.37
2019-06-26T09:34:07.413Z,50.85
2019-06-26T09:36:51.315Z,51.90
2019-06-26T09:39:24.813Z,52.64
2019-06-26T09:42:08.427Z,53.23
2019-06-26T09:44:51.777Z,52.31
2019-06-26T09:47:26.051Z,53.03
2019-06-26T09:49:59.902Z,50.71
2019-06-26T09:52:33.328Z,51.54
2019-06-26T09:55:08.748Z,50.90
2019-06-26T09:57:42.838Z,51.27
2019-06-26T10:00:16.795Z,51.12
2019-06-26T10:03:00.479Z,49.58
2019-06-26T10:05:33.467Z,49.88
2019-06-26T10:08:07.075Z,50.17
2019-06-26T10:10:41.670Z,49.88
2019-06-26T10:13:24.910Z,50.45
2019-06-26T10:16:02.189Z,49.72
2019-06-26T10:18:45.417Z,49.95
2019-06-26T10:21:18.678Z,48.70
2019-06-26T10:23:51.870Z,49.00
2019-06-26T10:26:25.878Z,49.54
2019-06-26T10:28:59.109Z,50.16
2019-06-26T10:31:32.419Z,51.17
2019-06-26T10:34:09.843Z,51.22
2019-06-26T10:36:51.031Z,50.73
2019-06-26T10:39:34.817Z,50.86
2019-06-26T10:42:18.339Z,51.15
2019-06-26T10:45:01.642Z,49.45
2019-06-26T10:47:39.550Z,50.52
2019-06-26T10:50:11.501Z,50.78
2019-06-26T10:52:45.228Z,48.00
2019-06-26T10:55:19.926Z,48.15
2019-06-26T10:58:03.157Z,48.70
2019-06-26T11:00:36.882Z,49.34
2019-06-26T11:03:10.846Z,49.94
2019-06-26T11:06:00.403Z,49.23
2019-06-26T11:08:34.749Z,48.91
2019-06-26T11:11:08.063Z,49.46
2019-06-26T11:13:51.292Z,49.09
2019-06-26T11:16:39.768Z,48.41
2019-06-26T11:19:13.538Z,47.82
2019-06-26T11:21:59.226Z,48.59
2019-06-26T11:24:33.252Z,47.79
2019-06-26T11:27:06.542Z,49.11
2019-06-26T11:29:40.112Z,48.65
2019-06-26T11:32:13.646Z,48.61
2019-06-26T11:34:47.330Z,47.10
2019-06-26T11:37:23.158Z,46.33
2019-06-26T11:39:55.802Z,46.70
2019-06-26T11:42:32.588Z,46.20
2019-06-26T11:45:05.082Z,46.08
2019-06-26T11:47:38.730Z,46.06
2019-06-26T11:50:12.676Z,46.72
2019-06-26T11:52:47.044Z,45.75
2019-06-26T11:55:20.862Z,46.37
2019-06-26T11:57:54.423Z,47.27
2019-06-26T12:00:28.712Z,47.98
2019-06-26T12:03:17.906Z,47.07
2019-06-26T12:05:51.599Z,47.06
2019-06-26T12:08:25.216Z,46.97
2019-06-26T12:10:59.058Z,47.40
2019-06-26T12:13:33.658Z,47.49
2019-06-26T12:16:07.243Z,46.88
2019-06-26T12:18:41.088Z,46.86
2019-06-26T12:21:14.291Z,47.44
2019-06-26T12:23:48.064Z,47.25
2019-06-26T12:26:22.344Z,45.77
2019-06-26T12:28:54.862Z,47.40
2019-06-26T12:31:30.695Z,45.96
2019-06-26T12:34:04.085Z,47.44
2019-06-26T12:36:36.372Z,45.25
2019-06-26T12:39:09.767Z,44.67
2019-06-26T12:41:43.386Z,45.57
2019-06-26T12:44:17.648Z,44.85
2019-06-26T12:47:03.585Z,44.91
2019-06-26T12:49:36.886Z,42.83
2019-06-26T12:52:11.204Z,43.45
2019-06-26T12:54:58.007Z,45.69
2019-06-26T12:57:31.664Z,45.99
2019-06-26T13:00:06.252Z,45.26
2019-06-26T13:02:52.359Z,45.92
2019-06-26T13:05:45.043Z,46.47
2019-06-26T13:08:31.103Z,46.76
2019-06-26T13:11:04.999Z,47.47
2019-06-26T13:14:01.962Z,48.71
2019-06-26T13:16:35.589Z,49.04
2019-06-26T13:19:09.858Z,49.41
2019-06-26T13:22:01.220Z,50.11
2019-06-26T13:24:34.667Z,49.82
2019-06-26T13:27:08.360Z,50.00
2019-06-26T13:29:44.254Z,51.37
2019-06-26T13:32:30.693Z,49.03
2019-06-26T13:35:13.866Z,49.44
2019-06-26T13:37:47.749Z,49.74
2019-06-26T13:40:21.365Z,50.04
2019-06-26T13:42:55.434Z,50.90
2019-06-26T13:45:29.897Z,51.24
2019-06-26T13:48:03.833Z,50.77
2019-06-26T13:50:50.594Z,50.18
2019-06-26T13:53:24.160Z,50.71
2019-06-26T13:55:58.166Z,51.86
2019-06-26T13:58:45.106Z,51.55
2019-06-26T14:01:18.695Z,51.42
2019-06-26T14:03:51.948Z,52.47
2019-06-26T14:06:25.803Z,51.52
2019-06-26T14:08:59.377Z,50.93
2019-06-26T14:11:32.624Z,49.34
2019-06-26T14:14:06.212Z,48.16
2019-06-26T14:16:43.584Z,47.18
2019-06-26T14:19:17.394Z,48.26
2019-06-26T14:22:03.483Z,48.28
2019-06-26T14:24:36.829Z,47.67
2019-06-26T14:27:10.410Z,48.09
2019-06-26T14:29:43.645Z,47.52
2019-06-26T14:32:35.488Z,47.40
2019-06-26T14:35:26.836Z,47.06
2019-06-26T14:38:00.777Z,47.38
2019-06-26T14:40:33.018Z,47.23
2019-06-26T14:43:25.113Z,45.99
2019-06-26T14:45:59.017Z,47.08
2019-06-26T14:48:32.333Z,47.49
2019-06-26T14:51:05.701Z,45.21
2019-06-26T14:53:39.657Z,45.56
2019-06-26T14:56:12.888Z,46.31
2019-06-26T14:58:46.517Z,46.02
2019-06-26T15:01:20.306Z,46.96
2019-06-26T15:03:54.442Z,47.90
2019-06-26T15:06:37.990Z,47.13
2019-06-26T15:09:11.390Z,47.24
2019-06-26T15:11:45.776Z,47.10
2019-06-26T15:14:31.808Z,48.70
2019-06-26T15:17:18.150Z,48.50
2019-06-26T15:20:01.542Z,47.62
2019-06-26T15:22:53.766Z,47.95
2019-06-26T15:25:27.009Z,46.78
2019-06-26T15:28:00.682Z,46.90
2019-06-26T15:30:37.054Z,47.64
2019-06-26T15:33:10.801Z,48.32
2019-06-26T15:35:44.061Z,48.18
2019-06-26T15:38:37.800Z,47.89
2019-06-26T15:41:11.015Z,48.03
2019-06-26T15:43:56.997Z,48.28
2019-06-26T15:46:30.342Z,50.29
2019-06-26T15:49:03.837Z,50.81
2019-06-26T15:51:41.248Z,50.67
2019-06-26T15:54:25.076Z,51.28
2019-06-26T15:57:08.819Z,51.31
2019-06-26T15:59:41.281Z,52.51
2019-06-26T16:02:16.795Z,50.54
2019-06-26T16:04:51.351Z,50.80
2019-06-26T16:07:24.537Z,50.65
2019-06-26T16:09:58.751Z,51.43
2019-06-26T16:12:44.954Z,52.65
2019-06-26T16:15:39.870Z,53.09
2019-06-26T16:18:21.487Z,53.13
2019-06-26T16:20:55.244Z,53.93
2019-06-26T16:23:27.483Z,53.52
2019-06-26T16:26:01.169Z,53.58
2019-06-26T16:28:34.766Z,53.38
2019-06-26T16:31:09.384Z,52.64
2019-06-26T16:33:54.808Z,51.55
2019-06-26T16:36:29.897Z,50.94
2019-06-26T16:39:02.841Z,50.12
2019-06-26T16:41:41.860Z,51.44
2019-06-26T16:44:15.525Z,53.35
2019-06-26T16:46:50.301Z,51.60
2019-06-26T16:49:28.027Z,50.81
2019-06-26T16:52:03.975Z,51.02
2019-06-26T16:54:43.974Z,53.10
2019-06-26T16:57:16.299Z,55.53
2019-06-26T16:59:49.557Z,56.05
2019-06-26T17:02:22.447Z,56.71
2019-06-26T17:05:06.039Z,56.09
2019-06-26T17:07:39.254Z,55.98
2019-06-26T17:10:12.856Z,55.87
2019-06-26T17:12:46.691Z,55.83
2019-06-26T17:15:19.719Z,55.83
2019-06-26T17:17:53.098Z,56.76
2019-06-26T17:20:38.597Z,57.85
2019-06-26T17:23:22.142Z,56.75
2019-06-26T17:26:06.069Z,54.63
2019-06-26T17:28:42.209Z,53.29
2019-06-26T17:31:16.103Z,51.71
2019-06-26T17:33:49.815Z,51.56
2019-06-26T17:36:22.679Z,51.22
2019-06-26T17:38:57.120Z,49.61
2019-06-26T17:41:47.092Z,48.87
2019-06-26T17:44:20.455Z,49.98
2019-06-26T17:46:54.231Z,49.92
2019-06-26T17:49:27.858Z,50.45
2019-06-26T17:52:01.727Z,49.95
2019-06-26T17:54:48.475Z,49.59
2019-06-26T17:57:32.737Z,50.07
2019-06-26T18:00:07.274Z,51.18
2019-06-26T18:02:50.906Z,53.10
2019-06-26T18:05:24.186Z,54.25
2019-06-26T18:07:57.858Z,54.96
2019-06-26T18:10:31.427Z,55.58
2019-06-26T18:13:05.956Z,56.19
2019-06-26T18:15:40.023Z,56.72
2019-06-26T18:18:16.277Z,57.73
2019-06-26T18:21:01.706Z,59.15
2019-06-26T18:23:38.479Z,59.49
2019-06-26T18:26:13.470Z,60.39
2019-06-26T18:28:45.990Z,61.30
2019-06-26T18:31:19.594Z,61.95
2019-06-26T18:33:52.992Z,62.87
2019-06-26T18:36:26.567Z,63.59
2019-06-26T18:38:59.992Z,63.22
2019-06-26T18:41:32.953Z,63.04
2019-06-26T18:44:16.202Z,63.09
2019-06-26T18:46:49.434Z,63.24
2019-06-26T18:49:22.671Z,63.84
2019-06-26T18:51:56.173Z,64.01
2019-06-26T18:54:29.473Z,63.92
2019-06-26T18:57:12.942Z,63.32
2019-06-26T18:59:56.648Z,63.11
2019-06-26T19:02:40.975Z,63.75
2019-06-26T19:05:14.721Z,64.08
2019-06-26T19:07:48.323Z,64.04
2019-06-26T19:10:21.551Z,63.21
2019-06-26T19:13:46.817Z,63.47
2019-06-26T19:16:36.151Z,64.32
2019-06-26T19:19:12.123Z,64.53
2019-06-26T19:21:44.208Z,64.51
2019-06-26T19:24:17.606Z,64.09
2019-06-26T19:26:51.304Z,64.55
2019-06-26T19:29:25.224Z,65.35
2019-06-26T19:31:58.395Z,65.56
2019-06-26T19:34:32.390Z,65.25
2019-06-26T19:37:05.609Z,65.10
2019-06-26T19:39:39.506Z,65.44
2019-06-26T19:42:13.066Z,65.75
2019-06-26T19:44:46.540Z,66.04
2019-06-26T19:47:20.476Z,65.77
2019-06-26T19:49:54.445Z,65.99
2019-06-26T19:52:41.268Z,65.89
2019-06-26T19:55:15.160Z,65.66
2019-06-26T19:57:49.250Z,65.94
2019-06-26T20:00:22.355Z,66.22
2019-06-26T20:02:55.563Z,66.07
2019-06-26T20:05:42.115Z,66.65
2019-06-26T20:08:15.359Z,66.88
2019-06-26T20:10:49.292Z,66.79
2019-06-26T20:13:23.530Z,66.57
2019-06-26T20:16:16.532Z,66.65
2019-06-26T20:19:33.589Z,66.61
2019-06-26T20:22:06.851Z,67.34
2019-06-26T20:24:44.634Z,67.63
2019-06-26T20:27:15.309Z,67.79
2019-06-26T20:29:48.983Z,68.03
2019-06-26T20:32:22.537Z,68.40
2019-06-26T20:35:09.915Z,68.24
2019-06-26T20:38:04.236Z,67.50
2019-06-26T20:40:38.699Z,67.45
2019-06-26T20:43:12.293Z,67.28
2019-06-26T20:45:45.870Z,67.05
2019-06-26T20:48:20.461Z,66.90
2019-06-26T20:50:53.868Z,67.33
2019-06-26T20:53:28.393Z,67.30
2019-06-26T20:56:05.399Z,67.08
2019-06-26T20:58:55.521Z,67.41
2019-06-26T21:01:28.744Z,67.93
2019-06-26T21:04:02.541Z,68.54
2019-06-26T21:06:34.799Z,69.15
2019-06-26T21:09:09.016Z,68.99
2019-06-26T21:11:42.688Z,68.87
2019-06-26T21:14:16.981Z,68.79
2019-06-26T21:16:51.169Z,68.71
2019-06-26T21:20:08.972Z,68.66
2019-06-26T21:22:42.675Z,68.84
2019-06-26T21:25:19.380Z,69.08
2019-06-26T21:27:52.307Z,69.15
2019-06-26T21:30:26.020Z,68.97
2019-06-26T21:32:59.518Z,68.76
2019-06-26T21:35:32.947Z,68.91
2019-06-26T21:38:06.183Z,69.52
2019-06-26T22:26:14.287Z,70.08
2019-06-26T22:28:48.039Z,70.36
2019-06-26T22:31:45.935Z,70.90
2019-06-26T22:34:31.088Z,70.44
2019-06-26T22:37:04.471Z,70.45
2019-06-26T22:39:38.439Z,70.45
2019-06-26T22:42:17.817Z,69.78
2019-06-26T22:44:51.610Z,69.96
2019-06-26T22:47:25.496Z,70.38
2019-06-26T22:50:00.783Z,69.99
2019-06-26T22:52:34.500Z,70.06
2019-06-26T22:55:08.400Z,70.10
2019-06-26T23:00:59.704Z,69.82
2019-06-26T23:03:33.463Z,70.54
2019-06-26T23:06:20.681Z,70.30
2019-06-26T23:09:13.300Z,70.23
2019-06-26T23:11:47.657Z,70.09
2019-06-26T23:14:20.921Z,70.33
2019-06-26T23:16:54.126Z,70.50
2019-06-26T23:19:27.821Z,70.75
2019-06-26T23:22:03.568Z,70.79
2019-06-26T23:24:41.533Z,70.32
2019-06-26T23:27:30.325Z,70.82
2019-06-26T23:30:04.627Z,70.79
2019-06-26T23:32:50.449Z,70.69
2019-06-26T23:35:36.556Z,69.90
2019-06-26T23:38:11.638Z,68.92
2019-06-26T23:40:44.937Z,68.68
2019-06-26T23:43:18.330Z,69.01
2019-06-26T23:45:51.804Z,69.17
2019-06-26T23:48:26.382Z,69.14
2019-06-26T23:51:11.550Z,68.75
2019-06-26T23:53:44.955Z,68.87
2019-06-26T23:56:21.400Z,68.23
2019-06-26T23:58:54.460Z,68.54
